Time;durP1;ratioP1;P1;durP2;ratioP2;P2;SDS_P1;SDS_P2;PMS_P1;PMS_P2;Temp;Humidity;BMP_temperature;BMP_pressure;BME280_temperature;BME280_humidity;BME280_pressure;Samples;Min_cycle;Max_cycle;Signal;HPM_P1;HPM_P2
2022/11/14 00:00:35;;;;;;;;;28.25;26.50;;;;;-147.17;100.00;-15917.19;4983718;28;50947;-47
2022/11/14 00:03:05;;;;;;;;;26.75;25.25;;;;;-147.17;100.00;-15917.19;4985680;28;54298;-47
2022/11/14 00:05:30;;;;;;;;;33.75;30.00;;;;;-147.17;100.00;-15917.19;4980238;28;51158;-47
2022/11/14 00:07:56;;;;;;;;;37.25;34.25;;;;;-147.17;100.00;-15917.19;4986796;28;51195;-47
2022/11/14 00:10:22;;;;;;;;;31.50;28.75;;;;;-147.17;100.00;-15917.19;4979984;28;51290;-48
2022/11/14 00:12:47;;;;;;;;;36.75;33.00;;;;;-147.17;100.00;-15917.19;4963901;28;51979;-47
2022/11/14 00:15:13;;;;;;;;;30.50;30.50;;;;;-147.17;100.00;-15917.19;4978963;28;51873;-47
2022/11/14 00:17:39;;;;;;;;;33.75;31.75;;;;;-147.17;100.00;-15917.19;4981332;28;51264;-46
2022/11/14 00:20:06;;;;;;;;;38.50;36.25;;;;;-147.17;100.00;-15917.19;4983839;28;52019;-50
2022/11/14 00:22:32;;;;;;;;;37.00;31.00;;;;;-147.17;100.00;-15917.19;4981962;28;51893;-46
2022/11/14 00:24:57;;;;;;;;;35.00;31.00;;;;;-147.17;100.00;-15917.19;4984624;28;52264;-47
2022/11/14 00:27:22;;;;;;;;;28.75;27.00;;;;;-147.17;100.00;-15917.19;4981488;28;52693;-47
2022/11/14 00:29:48;;;;;;;;;36.75;32.50;;;;;-147.17;100.00;-15917.19;4983589;28;51316;-47
2022/11/14 00:32:13;;;;;;;;;32.75;29.00;;;;;-147.17;100.00;-15917.19;4985116;28;51496;-47
2022/11/14 00:34:39;;;;;;;;;32.00;28.25;;;;;-147.17;100.00;-15917.19;4985571;28;51302;-48
2022/11/14 00:37:04;;;;;;;;;30.75;28.50;;;;;-147.17;100.00;-15917.19;4983753;28;51478;-47
2022/11/14 00:39:29;;;;;;;;;24.75;22.50;;;;;-147.17;100.00;-15917.19;4967468;28;51097;-48
2022/11/14 00:41:55;;;;;;;;;25.25;24.25;;;;;-147.17;100.00;-15917.19;4985945;28;51162;-46
2022/11/14 00:44:20;;;;;;;;;20.50;20.50;;;;;-147.17;100.00;-15917.19;4983442;28;51363;-47
2022/11/14 00:46:45;;;;;;;;;32.25;30.25;;;;;-147.17;100.00;-15917.19;4984457;28;61447;-48
2022/11/14 00:49:10;;;;;;;;;34.00;27.75;;;;;-147.17;100.00;-15917.19;4977318;28;51325;-47
2022/11/14 00:51:36;;;;;;;;;26.50;24.25;;;;;-147.17;100.00;-15917.19;4966894;28;52805;-46
2022/11/14 00:54:02;;;;;;;;;30.00;27.00;;;;;-147.17;100.00;-15917.19;4984278;28;52381;-47
2022/11/14 00:56:28;;;;;;;;;29.25;25.75;;;;;-147.17;100.00;-15917.19;4980842;28;52202;-47
2022/11/14 00:58:54;;;;;;;;;30.75;29.25;;;;;-147.17;100.00;-15917.19;4985514;28;51182;-48
2022/11/14 01:01:19;;;;;;;;;28.25;26.25;;;;;-147.17;100.00;-15917.19;4983599;28;51213;-47
2022/11/14 01:03:49;;;;;;;;;29.50;28.50;;;;;-147.17;100.00;-15917.19;4983903;28;51634;-47
2022/11/14 01:06:15;;;;;;;;;27.50;26.75;;;;;-147.17;100.00;-15917.19;4966353;28;54259;-46
2022/11/14 01:08:42;;;;;;;;;28.25;27.50;;;;;-147.17;100.00;-15917.19;4981390;28;52095;-48
2022/11/14 01:11:10;;;;;;;;;30.50;27.00;;;;;-147.17;100.00;-15917.19;4986448;28;51928;-48
2022/11/14 01:13:36;;;;;;;;;34.50;30.00;;;;;-147.17;100.00;-15917.19;4982638;28;51116;-48
2022/11/14 01:16:01;;;;;;;;;26.75;24.25;;;;;-147.17;100.00;-15917.19;4984823;28;51253;-49
2022/11/14 01:18:27;;;;;;;;;25.25;23.50;;;;;-147.17;100.00;-15917.19;4981354;28;51185;-47
2022/11/14 01:20:52;;;;;;;;;35.00;29.75;;;;;-147.17;100.00;-15917.19;4982166;28;51166;-47
2022/11/14 01:23:18;;;;;;;;;31.00;29.75;;;;;-147.17;100.00;-15917.19;4983250;28;51151;-47
2022/11/14 01:25:43;;;;;;;;;36.00;33.50;;;;;-147.17;100.00;-15917.19;4985864;28;51301;-48
2022/11/14 01:28:11;;;;;;;;;31.00;27.75;;;;;-147.17;100.00;-15917.19;4984857;28;52042;-47
2022/11/14 01:30:37;;;;;;;;;39.50;36.00;;;;;-147.17;100.00;-15917.19;4983051;28;51324;-48
2022/11/14 01:33:03;;;;;;;;;38.00;31.50;;;;;-147.17;100.00;-15917.19;4986178;28;51255;-46
2022/11/14 01:35:30;;;;;;;;;32.75;30.50;;;;;-147.17;100.00;-15917.19;4982601;28;51920;-47
2022/11/14 01:37:55;;;;;;;;;35.50;31.25;;;;;-147.17;100.00;-15917.19;4986825;28;51157;-47
2022/11/14 01:40:20;;;;;;;;;35.75;34.25;;;;;-147.17;100.00;-15917.19;4983594;28;51036;-47
2022/11/14 01:43:15;;;;;;;;;39.25;34.50;;;;;-147.17;100.00;-15917.19;4988778;28;51087;-47
2022/11/14 01:45:51;;;;;;;;;43.25;36.00;;;;;-147.17;100.00;-15917.19;4984200;28;53164;-47
2022/11/14 01:48:36;;;;;;;;;37.75;35.50;;;;;-147.17;100.00;-15917.19;4984673;28;51908;-46
2022/11/14 01:51:30;;;;;;;;;33.75;30.75;;;;;-147.17;100.00;-15917.19;4983772;28;51063;-46
2022/11/14 01:54:00;;;;;;;;;39.75;31.75;;;;;-147.17;100.00;-15917.19;4983689;28;51232;-47
2022/11/14 01:56:32;;;;;;;;;38.50;32.50;;;;;-147.17;100.00;-15917.19;4974380;28;51113;-48
2022/11/14 01:59:10;;;;;;;;;43.75;37.00;;;;;-147.17;100.00;-15917.19;4990439;28;51217;-48
2022/11/14 02:01:47;;;;;;;;;37.00;34.50;;;;;-147.17;100.00;-15917.19;4982561;28;53376;-47
2022/11/14 02:04:18;;;;;;;;;44.75;36.00;;;;;-147.17;100.00;-15917.19;4987619;28;51354;-47
2022/11/14 02:06:46;;;;;;;;;33.50;31.75;;;;;-147.17;100.00;-15917.19;4965177;28;53713;-46
2022/11/14 02:09:11;;;;;;;;;37.25;35.00;;;;;-147.17;100.00;-15917.19;4990466;28;51136;-47
2022/11/14 02:11:41;;;;;;;;;39.00;34.75;;;;;-147.17;100.00;-15917.19;4981921;28;51248;-47
2022/11/14 02:14:06;;;;;;;;;48.50;38.50;;;;;-147.17;100.00;-15917.19;4987130;28;51083;-47
2022/11/14 02:16:32;;;;;;;;;38.25;33.00;;;;;-147.17;100.00;-15917.19;4986999;28;51519;-48
2022/11/14 02:18:57;;;;;;;;;41.75;35.75;;;;;-147.17;100.00;-15917.19;4984609;28;51166;-48
2022/11/14 02:21:23;;;;;;;;;34.25;31.50;;;;;-147.17;100.00;-15917.19;4989204;28;51221;-47
2022/11/14 02:23:48;;;;;;;;;38.00;35.25;;;;;-147.17;100.00;-15917.19;4972730;28;51884;-47
2022/11/14 02:26:21;;;;;;;;;37.25;32.00;;;;;-147.17;100.00;-15917.19;4983462;28;51818;-47
2022/11/14 02:28:48;;;;;;;;;37.25;35.50;;;;;-147.17;100.00;-15917.19;4985198;28;51407;-48
2022/11/14 02:31:14;;;;;;;;;36.75;32.50;;;;;-147.17;100.00;-15917.19;4988247;28;51160;-47
2022/11/14 02:33:40;;;;;;;;;30.50;28.00;;;;;-147.17;100.00;-15917.19;4988688;28;51410;-48
2022/11/14 02:36:06;;;;;;;;;33.25;29.25;;;;;-147.17;100.00;-15917.19;4986031;28;52035;-48
2022/11/14 02:38:32;;;;;;;;;33.50;29.75;;;;;-147.17;100.00;-15917.19;4962117;28;51755;-47
2022/11/14 02:41:01;;;;;;;;;29.25;26.00;;;;;-147.17;100.00;-15917.19;4973051;28;51236;-48
2022/11/14 02:43:27;;;;;;;;;30.25;27.50;;;;;-147.17;100.00;-15917.19;4987994;28;51221;-48
2022/11/14 02:45:52;;;;;;;;;34.25;29.75;;;;;-147.17;100.00;-15917.19;4986116;28;51005;-48
2022/11/14 02:48:18;;;;;;;;;32.00;28.25;;;;;-147.17;100.00;-15917.19;4988231;28;51024;-48
2022/11/14 02:50:43;;;;;;;;;27.50;26.00;;;;;-147.17;100.00;-15917.19;4985234;28;51345;-48
2022/11/14 02:53:09;;;;;;;;;31.75;29.50;;;;;-147.17;100.00;-15917.19;4992277;28;51193;-48
2022/11/14 02:55:35;;;;;;;;;31.50;29.25;;;;;-147.17;100.00;-15917.19;4992666;28;51478;-47
2022/11/14 02:58:00;;;;;;;;;27.25;25.75;;;;;-147.17;100.00;-15917.19;4992824;28;51188;-48
2022/11/14 03:00:26;;;;;;;;;29.25;26.25;;;;;-147.17;100.00;-15917.19;4992460;28;51148;-47
2022/11/14 03:02:54;;;;;;;;;32.25;27.75;;;;;-147.17;100.00;-15917.19;4990369;28;51097;-47
2022/11/14 03:05:19;;;;;;;;;30.00;26.75;;;;;-147.17;100.00;-15917.19;4992185;28;52513;-47
2022/11/14 03:07:45;;;;;;;;;27.50;23.25;;;;;-147.17;100.00;-15917.19;4992554;28;51136;-47
2022/11/14 03:10:10;;;;;;;;;18.75;16.25;;;;;-147.17;100.00;-15917.19;4991429;28;51007;-47
2022/11/14 03:12:36;;;;;;;;;19.25;18.75;;;;;-147.17;100.00;-15917.19;4984159;28;51155;-46
2022/11/14 03:15:02;;;;;;;;;18.75;17.50;;;;;-147.17;100.00;-15917.19;4988790;28;52729;-46
2022/11/14 03:17:30;;;;;;;;;25.75;23.75;;;;;-147.17;100.00;-15917.19;4972170;28;51513;-49
2022/11/14 03:19:56;;;;;;;;;23.25;20.25;;;;;-147.17;100.00;-15917.19;4993074;28;51125;-47
2022/11/14 03:22:21;;;;;;;;;22.75;20.50;;;;;-147.17;100.00;-15917.19;4991705;28;51323;-46
2022/11/14 03:24:46;;;;;;;;;22.50;21.50;;;;;-147.17;100.00;-15917.19;4990998;28;52194;-48
2022/11/14 03:27:12;;;;;;;;;24.50;21.00;;;;;-147.17;100.00;-15917.19;4992156;28;51054;-47
2022/11/14 03:29:37;;;;;;;;;21.50;18.75;;;;;-147.17;100.00;-15917.19;4992426;28;51072;-48
2022/11/14 03:32:02;;;;;;;;;24.25;21.75;;;;;-147.17;100.00;-15917.19;4988520;28;50934;-48
2022/11/14 03:34:28;;;;;;;;;24.75;23.00;;;;;-147.17;100.00;-15917.19;4990325;28;52590;-48
2022/11/14 03:36:54;;;;;;;;;17.25;16.00;;;;;-147.17;100.00;-15917.19;4992609;28;51286;-48
2022/11/14 03:39:19;;;;;;;;;26.25;23.50;;;;;-147.17;100.00;-15917.19;4989104;28;51390;-49
2022/11/14 03:41:45;;;;;;;;;27.25;24.00;;;;;-147.17;100.00;-15917.19;4970734;28;51261;-48
2022/11/14 03:44:10;;;;;;;;;26.00;23.00;;;;;-147.17;100.00;-15917.19;4986818;28;53719;-48
2022/11/14 03:46:36;;;;;;;;;30.25;24.75;;;;;-147.17;100.00;-15917.19;4990651;28;51002;-46
2022/11/14 03:49:01;;;;;;;;;24.00;23.00;;;;;-147.17;100.00;-15917.19;4992583;28;51303;-46
2022/11/14 03:51:27;;;;;;;;;26.00;21.00;;;;;-147.17;100.00;-15917.19;4988527;28;51359;-48
2022/11/14 03:53:52;;;;;;;;;16.25;13.00;;;;;-147.17;100.00;-15917.19;4991542;28;51694;-46
2022/11/14 03:56:17;;;;;;;;;20.75;20.50;;;;;-147.17;100.00;-15917.19;4986704;28;51826;-46
2022/11/14 03:58:43;;;;;;;;;22.50;21.25;;;;;-147.17;100.00;-15917.19;4990052;28;51017;-46
2022/11/14 04:01:08;;;;;;;;;24.00;21.75;;;;;-147.17;100.00;-15917.19;4990805;28;51027;-49
2022/11/14 04:03:33;;;;;;;;;28.00;21.75;;;;;-147.17;100.00;-15917.19;4990277;28;51017;-49
2022/11/14 04:05:59;;;;;;;;;24.00;21.25;;;;;-147.17;100.00;-15917.19;4984175;28;51040;-49
2022/11/14 04:08:24;;;;;;;;;25.00;20.25;;;;;-147.17;100.00;-15917.19;4987184;28;51113;-47
2022/11/14 04:10:49;;;;;;;;;24.00;22.75;;;;;-147.17;100.00;-15917.19;4992639;28;51055;-48
2022/11/14 04:13:15;;;;;;;;;27.00;24.50;;;;;-147.17;100.00;-15917.19;4983826;28;51632;-48
2022/11/14 04:15:40;;;;;;;;;21.50;20.00;;;;;-147.17;100.00;-15917.19;4989900;28;50936;-49
2022/11/14 04:18:05;;;;;;;;;17.50;14.00;;;;;-147.17;100.00;-15917.19;4991070;28;51144;-48
2022/11/14 04:20:31;;;;;;;;;21.25;20.50;;;;;-147.17;100.00;-15917.19;4989424;28;51210;-47
2022/11/14 04:22:56;;;;;;;;;21.50;18.50;;;;;-147.17;100.00;-15917.19;4990280;28;52003;-48
2022/11/14 04:25:22;;;;;;;;;24.00;19.75;;;;;-147.17;100.00;-15917.19;4989599;28;51549;-48
2022/11/14 04:27:47;;;;;;;;;23.25;18.25;;;;;-147.17;100.00;-15917.19;4991140;28;51251;-48
2022/11/14 04:30:14;;;;;;;;;18.00;17.50;;;;;-147.17;100.00;-15917.19;4991864;28;51298;-49
2022/11/14 04:32:39;;;;;;;;;24.50;24.00;;;;;-147.17;100.00;-15917.19;4973032;28;54068;-47
2022/11/14 04:35:05;;;;;;;;;21.00;20.00;;;;;-147.17;100.00;-15917.19;4991780;28;51222;-47
2022/11/14 04:37:30;;;;;;;;;26.00;23.00;;;;;-147.17;100.00;-15917.19;4990363;28;50999;-47
2022/11/14 04:39:59;;;;;;;;;18.25;17.50;;;;;-147.17;100.00;-15917.19;4991240;28;51969;-47
2022/11/14 04:42:25;;;;;;;;;26.25;22.50;;;;;-147.17;100.00;-15917.19;4989648;28;51830;-48
2022/11/14 04:44:50;;;;;;;;;22.50;20.00;;;;;-147.17;100.00;-15917.19;4989974;28;51191;-48
2022/11/14 04:47:16;;;;;;;;;22.25;20.00;;;;;-147.17;100.00;-15917.19;4985745;28;51325;-48
2022/11/14 04:49:41;;;;;;;;;29.50;25.50;;;;;-147.17;100.00;-15917.19;4983090;28;51079;-46
2022/11/14 04:52:06;;;;;;;;;18.00;16.75;;;;;-147.17;100.00;-15917.19;4987276;28;60537;-48
2022/11/14 04:54:32;;;;;;;;;19.75;18.75;;;;;-147.17;100.00;-15917.19;4987974;28;51168;-47
2022/11/14 04:56:57;;;;;;;;;18.75;17.25;;;;;-147.17;100.00;-15917.19;4987173;28;51294;-47
2022/11/14 04:59:22;;;;;;;;;23.25;20.00;;;;;-147.17;100.00;-15917.19;4988127;28;51077;-46
2022/11/14 05:01:47;;;;;;;;;19.75;18.25;;;;;-147.17;100.00;-15917.19;4987867;28;52727;-48
2022/11/14 05:04:13;;;;;;;;;24.00;22.75;;;;;-147.17;100.00;-15917.19;4984457;28;51293;-47
2022/11/14 05:06:38;;;;;;;;;22.25;20.00;;;;;-147.17;100.00;-15917.19;4988227;28;51019;-46
2022/11/14 05:09:04;;;;;;;;;27.50;25.00;;;;;-147.17;100.00;-15917.19;4984388;28;51206;-47
2022/11/14 05:11:29;;;;;;;;;20.75;18.00;;;;;-147.17;100.00;-15917.19;4984920;28;51313;-47
2022/11/14 05:13:54;;;;;;;;;20.75;19.75;;;;;-147.17;100.00;-15917.19;4983833;28;51308;-47
2022/11/14 05:16:20;;;;;;;;;24.00;19.50;;;;;-147.17;100.00;-15917.19;4986566;28;51551;-49
2022/11/14 05:18:45;;;;;;;;;21.75;20.25;;;;;-147.17;100.00;-15917.19;4986694;28;51208;-48
2022/11/14 05:21:14;;;;;;;;;26.25;22.25;;;;;-147.17;100.00;-15917.19;4985847;28;51248;-47
2022/11/14 05:23:40;;;;;;;;;19.25;18.50;;;;;-147.17;100.00;-15917.19;4987699;28;51281;-48
2022/11/14 05:26:09;;;;;;;;;16.25;13.25;;;;;-147.17;100.00;-15917.19;4986665;28;51044;-48
2022/11/14 05:28:34;;;;;;;;;24.50;18.50;;;;;-147.17;100.00;-15917.19;4987067;28;52529;-48
2022/11/14 05:31:05;;;;;;;;;21.00;19.25;;;;;-147.17;100.00;-15917.19;4990577;28;52004;-49
2022/11/14 05:33:30;;;;;;;;;20.50;19.00;;;;;-147.17;100.00;-15917.19;4989842;28;51660;-48
2022/11/14 05:36:01;;;;;;;;;25.00;23.25;;;;;-147.17;100.00;-15917.19;4992071;28;51189;-50
2022/11/14 05:38:26;;;;;;;;;24.75;22.75;;;;;-147.17;100.00;-15917.19;4991526;28;51137;-49
2022/11/14 05:40:51;;;;;;;;;24.50;21.75;;;;;-147.17;100.00;-15917.19;4992858;28;51469;-48
2022/11/14 05:43:17;;;;;;;;;19.00;17.00;;;;;-147.17;100.00;-15917.19;4989422;28;52786;-54
2022/11/14 05:45:42;;;;;;;;;18.75;18.75;;;;;-147.17;100.00;-15917.19;4993487;28;51111;-49
2022/11/14 05:48:08;;;;;;;;;21.50;19.25;;;;;-147.17;100.00;-15917.19;4993186;28;51481;-48
2022/11/14 05:50:33;;;;;;;;;21.50;20.50;;;;;-147.17;100.00;-15917.19;4994069;28;51018;-48
2022/11/14 05:52:58;;;;;;;;;26.00;17.25;;;;;-147.17;100.00;-15917.19;4992716;28;51587;-48
2022/11/14 05:55:23;;;;;;;;;23.50;22.00;;;;;-147.17;100.00;-15917.19;4991154;28;51388;-49
2022/11/14 05:57:49;;;;;;;;;21.50;18.00;;;;;-147.17;100.00;-15917.19;4992364;28;50970;-48
2022/11/14 06:00:14;;;;;;;;;24.50;20.75;;;;;-147.17;100.00;-15917.19;4991439;28;51810;-47
2022/11/14 06:02:40;;;;;;;;;23.25;21.50;;;;;-147.17;100.00;-15917.19;4957395;28;51215;-48
2022/11/14 06:05:05;;;;;;;;;23.75;22.00;;;;;-147.17;100.00;-15917.19;4993524;28;50911;-48
2022/11/14 06:07:31;;;;;;;;;29.75;24.50;;;;;-147.17;100.00;-15917.19;4991257;28;51124;-48
2022/11/14 06:09:56;;;;;;;;;22.50;19.75;;;;;-147.17;100.00;-15917.19;4991781;28;51255;-48
2022/11/14 06:12:21;;;;;;;;;25.25;21.50;;;;;-147.17;100.00;-15917.19;4993641;28;51438;-51
2022/11/14 06:14:47;;;;;;;;;22.50;21.00;;;;;-147.17;100.00;-15917.19;4988541;28;51805;-47
2022/11/14 06:17:12;;;;;;;;;20.50;19.00;;;;;-147.17;100.00;-15917.19;4991753;28;51103;-47
2022/11/14 06:19:37;;;;;;;;;27.00;22.50;;;;;-147.17;100.00;-15917.19;4992780;28;51172;-48
2022/11/14 06:22:03;;;;;;;;;28.50;25.00;;;;;-147.17;100.00;-15917.19;4991499;28;51472;-47
2022/11/14 06:24:28;;;;;;;;;25.75;24.25;;;;;-147.17;100.00;-15917.19;4986777;28;51862;-47
2022/11/14 06:26:53;;;;;;;;;28.75;19.75;;;;;-147.17;100.00;-15917.19;4989874;28;51112;-47
2022/11/14 06:29:18;;;;;;;;;19.75;19.00;;;;;-147.17;100.00;-15917.19;4990030;28;51481;-47
2022/11/14 06:31:44;;;;;;;;;19.50;19.00;;;;;-147.17;100.00;-15917.19;4991046;28;51484;-46
2022/11/14 06:34:10;;;;;;;;;25.25;24.00;;;;;-147.17;100.00;-15917.19;4987514;28;51266;-47
2022/11/14 06:36:36;;;;;;;;;19.00;17.75;;;;;-147.17;100.00;-15917.19;4973279;28;51460;-47
2022/11/14 06:39:01;;;;;;;;;18.25;14.50;;;;;-147.17;100.00;-15917.19;4988250;28;51216;-47
2022/11/14 06:41:27;;;;;;;;;21.25;19.25;;;;;-147.17;100.00;-15917.19;4989345;28;51067;-47
2022/11/14 06:43:53;;;;;;;;;24.00;21.50;;;;;-147.17;100.00;-15917.19;4991751;28;51205;-47
2022/11/14 06:46:20;;;;;;;;;21.00;19.75;;;;;-147.17;100.00;-15917.19;4993668;28;50944;-46
2022/11/14 06:48:47;;;;;;;;;19.50;17.50;;;;;-147.17;100.00;-15917.19;4992092;28;51105;-47
2022/11/14 06:51:14;;;;;;;;;22.50;20.50;;;;;-147.17;100.00;-15917.19;4993396;28;51782;-48
2022/11/14 06:53:40;;;;;;;;;26.75;24.75;;;;;-147.17;100.00;-15917.19;4992745;28;51134;-47
2022/11/14 06:56:08;;;;;;;;;22.75;19.25;;;;;-147.17;100.00;-15917.19;4973119;28;51367;-47
2022/11/14 06:58:39;;;;;;;;;22.25;20.75;;;;;-147.17;100.00;-15917.19;4992175;28;50983;-47
2022/11/14 07:01:07;;;;;;;;;27.25;21.75;;;;;-147.17;100.00;-15917.19;4991890;28;51174;-47
2022/11/14 07:03:33;;;;;;;;;21.25;20.00;;;;;-147.17;100.00;-15917.19;4991167;28;51144;-49
2022/11/14 07:05:59;;;;;;;;;19.00;16.50;;;;;-147.17;100.00;-15917.19;4990065;28;51029;-48
2022/11/14 07:08:25;;;;;;;;;22.00;18.75;;;;;-147.17;100.00;-15917.19;4992676;28;51629;-48
2022/11/14 07:10:51;;;;;;;;;20.00;18.25;;;;;-147.17;100.00;-15917.19;4987200;28;51306;-47
2022/11/14 07:13:16;;;;;;;;;17.50;16.75;;;;;-147.17;100.00;-15917.19;4981240;28;51128;-48
2022/11/14 07:15:54;;;;;;;;;19.75;19.00;;;;;-147.17;100.00;-15917.19;4984592;28;51155;-47
2022/11/14 07:18:20;;;;;;;;;13.50;13.25;;;;;-147.17;100.00;-15917.19;4983402;28;53328;-47
2022/11/14 07:20:46;;;;;;;;;18.75;17.50;;;;;-147.17;100.00;-15917.19;4970026;28;51260;-49
2022/11/14 07:23:12;;;;;;;;;30.75;28.25;;;;;-147.17;100.00;-15917.19;4985937;28;51476;-48
2022/11/14 07:25:37;;;;;;;;;22.00;20.50;;;;;-147.17;100.00;-15917.19;4972986;28;51223;-47
2022/11/14 07:28:02;;;;;;;;;19.75;19.25;;;;;-147.17;100.00;-15917.19;4986537;28;51819;-48
2022/11/14 07:30:28;;;;;;;;;22.75;22.25;;;;;-147.17;100.00;-15917.19;4971179;28;51538;-47
2022/11/14 07:32:55;;;;;;;;;23.00;19.75;;;;;-147.17;100.00;-15917.19;4975185;28;51614;-47
2022/11/14 07:35:21;;;;;;;;;25.25;25.00;;;;;-147.17;100.00;-15917.19;4973906;28;51071;-48
2022/11/14 07:37:46;;;;;;;;;26.50;23.50;;;;;-147.17;100.00;-15917.19;4990857;28;51011;-48
2022/11/14 07:40:11;;;;;;;;;24.50;21.75;;;;;-147.17;100.00;-15917.19;4986116;28;51223;-48
2022/11/14 07:42:37;;;;;;;;;22.50;19.25;;;;;-147.17;100.00;-15917.19;4993304;28;51096;-47
2022/11/14 07:45:02;;;;;;;;;24.25;21.50;;;;;-147.17;100.00;-15917.19;4993053;28;50986;-49
2022/11/14 07:47:28;;;;;;;;;22.00;19.50;;;;;-147.17;100.00;-15917.19;4987310;28;51808;-47
2022/11/14 07:49:53;;;;;;;;;21.50;19.25;;;;;-147.17;100.00;-15917.19;4992408;28;51253;-47
2022/11/14 07:52:18;;;;;;;;;28.50;25.75;;;;;-147.17;100.00;-15917.19;4991695;28;51121;-47
2022/11/14 07:54:44;;;;;;;;;26.00;24.50;;;;;-147.17;100.00;-15917.19;4994901;28;51209;-48
2022/11/14 07:57:09;;;;;;;;;30.25;27.25;;;;;-147.17;100.00;-15917.19;4990911;28;51808;-49
2022/11/14 07:59:34;;;;;;;;;23.75;19.75;;;;;-147.17;100.00;-15917.19;4979783;28;51231;-47
2022/11/14 08:02:00;;;;;;;;;24.25;23.25;;;;;-147.17;100.00;-15917.19;4992192;28;53451;-47
2022/11/14 08:04:25;;;;;;;;;27.75;25.75;;;;;-147.17;100.00;-15917.19;4993358;28;51082;-49
2022/11/14 08:06:50;;;;;;;;;23.75;22.00;;;;;-147.17;100.00;-15917.19;4990306;28;51252;-49
2022/11/14 08:09:16;;;;;;;;;22.25;18.75;;;;;-147.17;100.00;-15917.19;4975280;28;51119;-48
2022/11/14 08:11:48;;;;;;;;;25.75;22.75;;;;;-147.17;100.00;-15917.19;4992929;28;50997;-48
2022/11/14 08:14:14;;;;;;;;;25.50;20.00;;;;;-147.17;100.00;-15917.19;4990999;28;51165;-49
2022/11/14 08:16:40;;;;;;;;;21.00;20.00;;;;;-147.17;100.00;-15917.19;4989741;28;52777;-49
2022/11/14 08:19:06;;;;;;;;;19.00;18.25;;;;;-147.17;100.00;-15917.19;4992487;28;51096;-49
2022/11/14 08:21:31;;;;;;;;;26.50;24.25;;;;;-147.17;100.00;-15917.19;4991618;28;51145;-47
2022/11/14 08:23:56;;;;;;;;;22.25;20.75;;;;;-147.17;100.00;-15917.19;4985479;28;51154;-48
2022/11/14 08:26:22;;;;;;;;;21.50;21.50;;;;;-147.17;100.00;-15917.19;4990111;28;51877;-49
2022/11/14 08:28:51;;;;;;;;;27.00;23.50;;;;;-147.17;100.00;-15917.19;4994354;28;51048;-48
2022/11/14 08:31:17;;;;;;;;;27.75;24.75;;;;;-147.17;100.00;-15917.19;4974714;28;51204;-49
2022/11/14 08:33:42;;;;;;;;;29.50;26.25;;;;;-147.17;100.00;-15917.19;4990240;28;51346;-48
2022/11/14 08:36:09;;;;;;;;;27.25;25.75;;;;;-147.17;100.00;-15917.19;4987662;28;51002;-46
2022/11/14 08:38:34;;;;;;;;;27.25;24.50;;;;;-147.17;100.00;-15917.19;4977868;28;51153;-48
2022/11/14 08:41:00;;;;;;;;;23.50;21.75;;;;;-147.17;100.00;-15917.19;4987192;28;51331;-49
2022/11/14 08:43:26;;;;;;;;;24.25;20.00;;;;;-147.17;100.00;-15917.19;4987929;28;51223;-47
2022/11/14 08:45:52;;;;;;;;;25.50;21.50;;;;;-147.17;100.00;-15917.19;4988999;28;52023;-47
2022/11/14 08:48:17;;;;;;;;;22.75;21.00;;;;;-147.17;100.00;-15917.19;4971872;28;51129;-47
2022/11/14 08:50:42;;;;;;;;;23.50;21.00;;;;;-147.17;100.00;-15917.19;4992200;28;50917;-50
2022/11/14 08:53:08;;;;;;;;;19.75;19.00;;;;;-147.17;100.00;-15917.19;4973756;28;51214;-47
2022/11/14 08:55:33;;;;;;;;;25.25;23.00;;;;;-147.17;100.00;-15917.19;4989256;28;55070;-47
2022/11/14 08:57:58;;;;;;;;;19.25;18.75;;;;;-147.17;100.00;-15917.19;4992126;28;50970;-48
2022/11/14 09:00:24;;;;;;;;;29.25;25.25;;;;;-147.17;100.00;-15917.19;4986811;28;51126;-47
2022/11/14 09:02:49;;;;;;;;;26.75;25.25;;;;;-147.17;100.00;-15917.19;4991824;28;51396;-47
2022/11/14 09:05:15;;;;;;;;;26.00;24.00;;;;;-147.17;100.00;-15917.19;4991243;28;60070;-46
2022/11/14 09:07:40;;;;;;;;;26.00;24.50;;;;;-147.17;100.00;-15917.19;4991881;28;51009;-47
2022/11/14 09:10:06;;;;;;;;;26.25;25.25;;;;;-147.17;100.00;-15917.19;4991714;28;50846;-47
2022/11/14 09:12:32;;;;;;;;;25.50;25.25;;;;;-147.17;100.00;-15917.19;4985513;28;51270;-49
2022/11/14 09:14:57;;;;;;;;;22.25;18.75;;;;;-147.17;100.00;-15917.19;4985509;28;50947;-48
2022/11/14 09:17:23;;;;;;;;;25.50;22.75;;;;;-147.17;100.00;-15917.19;4970857;28;51181;-48
2022/11/14 09:19:49;;;;;;;;;28.00;21.75;;;;;-147.17;100.00;-15917.19;4985660;28;51116;-48
2022/11/14 09:22:14;;;;;;;;;24.75;20.50;;;;;-147.17;100.00;-15917.19;4992258;28;50990;-48
2022/11/14 09:24:40;;;;;;;;;24.50;24.25;;;;;-147.17;100.00;-15917.19;4991154;28;51887;-49
2022/11/14 09:27:05;;;;;;;;;28.00;24.25;;;;;-147.17;100.00;-15917.19;4991812;28;51022;-48
2022/11/14 09:29:30;;;;;;;;;23.75;23.75;;;;;-147.17;100.00;-15917.19;4991952;28;51073;-48
2022/11/14 09:31:56;;;;;;;;;24.50;20.25;;;;;-147.17;100.00;-15917.19;4973468;28;51056;-47
2022/11/14 09:34:21;;;;;;;;;30.25;27.75;;;;;-147.17;100.00;-15917.19;4990209;28;51765;-49
2022/11/14 09:36:47;;;;;;;;;20.50;19.25;;;;;-147.17;100.00;-15917.19;4991681;28;50946;-47
2022/11/14 09:39:12;;;;;;;;;24.75;23.50;;;;;-147.17;100.00;-15917.19;4991742;28;50972;-47
2022/11/14 09:41:49;;;;;;;;;32.50;30.25;;;;;-147.17;100.00;-15917.19;4991577;28;51434;-47
2022/11/14 09:44:20;;;;;;;;;21.50;18.50;;;;;-147.17;100.00;-15917.19;4991241;28;52081;-47
2022/11/14 09:46:52;;;;;;;;;25.25;21.00;;;;;-147.17;100.00;-15917.19;4990988;28;51058;-49
2022/11/14 09:49:36;;;;;;;;;25.50;23.25;;;;;-147.17;100.00;-15917.19;4991237;28;51229;-48
2022/11/14 09:52:11;;;;;;;;;20.25;18.00;;;;;-147.17;100.00;-15917.19;4991665;28;51123;-47
2022/11/14 09:54:47;;;;;;;;;19.00;18.75;;;;;-147.17;100.00;-15917.19;4991376;28;51823;-48
2022/11/14 09:57:18;;;;;;;;;20.75;20.00;;;;;-147.17;100.00;-15917.19;4991573;28;51134;-47
2022/11/14 09:59:44;;;;;;;;;20.50;18.00;;;;;-147.17;100.00;-15917.19;4991278;28;50947;-47
2022/11/14 10:02:31;;;;;;;;;25.00;23.75;;;;;-147.17;100.00;-15917.19;4985681;28;51576;-48
2022/11/14 10:05:20;;;;;;;;;21.00;20.25;;;;;-147.17;100.00;-15917.19;4991173;28;50950;-48
2022/11/14 10:07:54;;;;;;;;;20.25;18.25;;;;;-147.17;100.00;-15917.19;4991344;28;51180;-46
2022/11/14 10:10:25;;;;;;;;;21.50;21.00;;;;;-147.17;100.00;-15917.19;4991682;28;51003;-49
2022/11/14 10:13:16;;;;;;;;;26.50;23.75;;;;;-147.17;100.00;-15917.19;4991518;28;51072;-46
2022/11/14 10:16:09;;;;;;;;;21.25;21.00;;;;;-147.17;100.00;-15917.19;4992034;28;51141;-49
2022/11/14 10:19:05;;;;;;;;;25.50;24.50;;;;;-147.17;100.00;-15917.19;4994886;28;51060;-49
2022/11/14 10:21:54;;;;;;;;;19.25;16.25;;;;;-147.17;100.00;-15917.19;4994690;28;51286;-47
2022/11/14 10:25:02;;;;;;;;;22.50;21.00;;;;;-147.17;100.00;-15917.19;4994510;28;51422;-47
2022/11/14 10:27:38;;;;;;;;;15.75;15.75;;;;;-147.17;100.00;-15917.19;4952964;28;51123;-49
2022/11/14 10:30:13;;;;;;;;;18.75;18.00;;;;;-147.17;100.00;-15917.19;4972983;28;51102;-47
2022/11/14 10:33:02;;;;;;;;;23.00;19.75;;;;;-147.17;100.00;-15917.19;4994178;28;51090;-50
2022/11/14 10:35:47;;;;;;;;;20.00;19.00;;;;;-147.17;100.00;-15917.19;4994521;28;51469;-48
2022/11/14 10:38:24;;;;;;;;;26.00;22.75;;;;;-147.17;100.00;-15917.19;4993536;28;51873;-49
2022/11/14 10:40:54;;;;;;;;;17.75;17.75;;;;;-147.17;100.00;-15917.19;4994406;28;50927;-48
2022/11/14 10:43:28;;;;;;;;;20.00;19.75;;;;;-147.17;100.00;-15917.19;4994148;28;51146;-48
2022/11/14 10:46:09;;;;;;;;;26.25;23.50;;;;;-147.17;100.00;-15917.19;4994295;28;51174;-48
2022/11/14 10:48:45;;;;;;;;;20.25;19.50;;;;;-147.17;100.00;-15917.19;4993445;28;51090;-50